sensor_id;sensor_type;location;lat;lon;timestamp;P1;durP1;ratioP1;P2;durP2;ratioP2
25155;SDS011;21913;52.456;13.634;2023-04-19T00:00:22;4.95;;;3.60;;
25155;SDS011;21913;52.456;13.634;2023-04-19T00:05:27;5.22;;;4.05;;
25155;SDS011;21913;52.456;13.634;2023-04-19T00:10:29;7.20;;;3.88;;
25155;SDS011;21913;52.456;13.634;2023-04-19T00:15:30;4.95;;;3.70;;
25155;SDS011;21913;52.456;13.634;2023-04-19T00:20:31;4.50;;;3.58;;
25155;SDS011;21913;52.456;13.634;2023-04-19T00:25:33;5.95;;;3.92;;
25155;SDS011;21913;52.456;13.634;2023-04-19T00:30:34;5.70;;;3.85;;
25155;SDS011;21913;52.456;13.634;2023-04-19T00:35:36;5.47;;;3.85;;
25155;SDS011;21913;52.456;13.634;2023-04-19T00:40:37;5.57;;;3.92;;
25155;SDS011;21913;52.456;13.634;2023-04-19T00:45:39;5.18;;;3.28;;
25155;SDS011;21913;52.456;13.634;2023-04-19T00:50:41;4.38;;;3.50;;
25155;SDS011;21913;52.456;13.634;2023-04-19T00:55:44;4.15;;;3.50;;
25155;SDS011;21913;52.456;13.634;2023-04-19T01:00:46;5.47;;;4.03;;
25155;SDS011;21913;52.456;13.634;2023-04-19T01:05:48;4.38;;;3.42;;
25155;SDS011;21913;52.456;13.634;2023-04-19T01:10:49;5.32;;;3.70;;
25155;SDS011;21913;52.456;13.634;2023-04-19T01:15:51;4.95;;;3.60;;
25155;SDS011;21913;52.456;13.634;2023-04-19T01:20:54;6.05;;;3.58;;
25155;SDS011;21913;52.456;13.634;2023-04-19T01:25:55;4.07;;;3.30;;
25155;SDS011;21913;52.456;13.634;2023-04-19T01:30:57;4.40;;;3.33;;
25155;SDS011;21913;52.456;13.634;2023-04-19T01:35:59;5.65;;;3.70;;
25155;SDS011;21913;52.456;13.634;2023-04-19T01:41:01;4.75;;;3.40;;
25155;SDS011;21913;52.456;13.634;2023-04-19T01:46:04;4.10;;;3.00;;
25155;SDS011;21913;52.456;13.634;2023-04-19T01:51:06;4.97;;;3.42;;
25155;SDS011;21913;52.456;13.634;2023-04-19T01:56:08;4.65;;;3.33;;
25155;SDS011;21913;52.456;13.634;2023-04-19T02:01:10;4.20;;;3.25;;
25155;SDS011;21913;52.456;13.634;2023-04-19T02:06:12;6.05;;;3.15;;
25155;SDS011;21913;52.456;13.634;2023-04-19T02:11:14;4.45;;;3.28;;
25155;SDS011;21913;52.456;13.634;2023-04-19T02:16:16;4.25;;;3.30;;
25155;SDS011;21913;52.456;13.634;2023-04-19T02:21:17;4.38;;;3.20;;
25155;SDS011;21913;52.456;13.634;2023-04-19T02:26:20;4.07;;;3.13;;
25155;SDS011;21913;52.456;13.634;2023-04-19T02:31:22;3.25;;;2.60;;
25155;SDS011;21913;52.456;13.634;2023-04-19T02:36:23;4.13;;;3.10;;
25155;SDS011;21913;52.456;13.634;2023-04-19T02:41:25;4.95;;;3.40;;
25155;SDS011;21913;52.456;13.634;2023-04-19T02:46:26;4.20;;;3.10;;
25155;SDS011;21913;52.456;13.634;2023-04-19T02:51:28;4.53;;;3.38;;
25155;SDS011;21913;52.456;13.634;2023-04-19T02:56:29;4.35;;;3.08;;
25155;SDS011;21913;52.456;13.634;2023-04-19T03:01:31;4.78;;;3.17;;
25155;SDS011;21913;52.456;13.634;2023-04-19T03:06:36;3.85;;;3.17;;
25155;SDS011;21913;52.456;13.634;2023-04-19T03:11:38;4.13;;;3.13;;
25155;SDS011;21913;52.456;13.634;2023-04-19T03:16:40;3.90;;;3.13;;
25155;SDS011;21913;52.456;13.634;2023-04-19T03:21:41;4.57;;;3.10;;
25155;SDS011;21913;52.456;13.634;2023-04-19T03:26:43;3.95;;;2.95;;
25155;SDS011;21913;52.456;13.634;2023-04-19T03:31:44;4.75;;;3.00;;
25155;SDS011;21913;52.456;13.634;2023-04-19T03:36:46;4.15;;;3.22;;
25155;SDS011;21913;52.456;13.634;2023-04-19T03:41:48;4.82;;;3.10;;
25155;SDS011;21913;52.456;13.634;2023-04-19T03:46:57;3.60;;;2.80;;
25155;SDS011;21913;52.456;13.634;2023-04-19T03:52:02;5.45;;;3.17;;
25155;SDS011;21913;52.456;13.634;2023-04-19T03:57:04;4.60;;;2.95;;
25155;SDS011;21913;52.456;13.634;2023-04-19T04:02:08;4.53;;;3.10;;
25155;SDS011;21913;52.456;13.634;2023-04-19T04:07:10;3.40;;;2.72;;
25155;SDS011;21913;52.456;13.634;2023-04-19T04:12:11;3.67;;;2.88;;
25155;SDS011;21913;52.456;13.634;2023-04-19T04:17:13;4.60;;;2.78;;
25155;SDS011;21913;52.456;13.634;2023-04-19T04:22:15;5.93;;;3.08;;
25155;SDS011;21913;52.456;13.634;2023-04-19T04:27:17;3.88;;;3.17;;
25155;SDS011;21913;52.456;13.634;2023-04-19T04:32:18;4.30;;;3.38;;
25155;SDS011;21913;52.456;13.634;2023-04-19T04:37:20;5.00;;;3.40;;
25155;SDS011;21913;52.456;13.634;2023-04-19T04:42:22;3.40;;;2.75;;
25155;SDS011;21913;52.456;13.634;2023-04-19T04:47:32;4.13;;;2.95;;
25155;SDS011;21913;52.456;13.634;2023-04-19T04:52:37;5.03;;;3.30;;
25155;SDS011;21913;52.456;13.634;2023-04-19T04:58:05;4.07;;;2.97;;
25155;SDS011;21913;52.456;13.634;2023-04-19T05:03:26;4.72;;;3.22;;
25155;SDS011;21913;52.456;13.634;2023-04-19T05:08:31;3.90;;;2.90;;
25155;SDS011;21913;52.456;13.634;2023-04-19T05:13:47;3.97;;;3.03;;
25155;SDS011;21913;52.456;13.634;2023-04-19T05:18:48;4.22;;;2.92;;
25155;SDS011;21913;52.456;13.634;2023-04-19T05:23:50;4.43;;;2.92;;
25155;SDS011;21913;52.456;13.634;2023-04-19T05:28:51;4.63;;;3.25;;
25155;SDS011;21913;52.456;13.634;2023-04-19T05:34:00;5.15;;;2.83;;
25155;SDS011;21913;52.456;13.634;2023-04-19T05:39:02;3.67;;;2.70;;
25155;SDS011;21913;52.456;13.634;2023-04-19T05:44:04;5.32;;;2.92;;
25155;SDS011;21913;52.456;13.634;2023-04-19T05:49:05;3.63;;;2.78;;
25155;SDS011;21913;52.456;13.634;2023-04-19T05:54:18;4.10;;;3.10;;
25155;SDS011;21913;52.456;13.634;2023-04-19T05:59:21;4.97;;;2.88;;
25155;SDS011;21913;52.456;13.634;2023-04-19T06:04:23;4.85;;;2.83;;
25155;SDS011;21913;52.456;13.634;2023-04-19T06:09:25;5.20;;;3.20;;
25155;SDS011;21913;52.456;13.634;2023-04-19T06:14:26;6.22;;;3.05;;
25155;SDS011;21913;52.456;13.634;2023-04-19T06:19:28;3.65;;;2.70;;
25155;SDS011;21913;52.456;13.634;2023-04-19T06:24:30;4.10;;;2.65;;
25155;SDS011;21913;52.456;13.634;2023-04-19T06:29:32;3.55;;;2.60;;
25155;SDS011;21913;52.456;13.634;2023-04-19T06:34:33;4.32;;;2.80;;
25155;SDS011;21913;52.456;13.634;2023-04-19T06:39:35;3.40;;;2.47;;
25155;SDS011;21913;52.456;13.634;2023-04-19T06:44:36;3.30;;;2.47;;
25155;SDS011;21913;52.456;13.634;2023-04-19T06:49:38;5.47;;;2.80;;
25155;SDS011;21913;52.456;13.634;2023-04-19T06:54:39;3.22;;;2.40;;
25155;SDS011;21913;52.456;13.634;2023-04-19T06:59:41;4.03;;;2.50;;
25155;SDS011;21913;52.456;13.634;2023-04-19T07:04:43;3.78;;;2.50;;
25155;SDS011;21913;52.456;13.634;2023-04-19T07:09:44;3.95;;;2.30;;
25155;SDS011;21913;52.456;13.634;2023-04-19T07:14:46;4.25;;;2.22;;
25155;SDS011;21913;52.456;13.634;2023-04-19T07:19:47;5.03;;;2.35;;
25155;SDS011;21913;52.456;13.634;2023-04-19T07:24:49;4.63;;;2.65;;
25155;SDS011;21913;52.456;13.634;2023-04-19T07:29:50;4.55;;;2.22;;
25155;SDS011;21913;52.456;13.634;2023-04-19T07:34:52;5.53;;;2.60;;
25155;SDS011;21913;52.456;13.634;2023-04-19T07:39:54;4.13;;;2.30;;
25155;SDS011;21913;52.456;13.634;2023-04-19T07:44:55;3.97;;;2.28;;
25155;SDS011;21913;52.456;13.634;2023-04-19T07:49:57;3.65;;;2.20;;
25155;SDS011;21913;52.456;13.634;2023-04-19T07:54:58;3.88;;;2.35;;
25155;SDS011;21913;52.456;13.634;2023-04-19T08:00:00;3.13;;;1.90;;
25155;SDS011;21913;52.456;13.634;2023-04-19T08:05:01;3.47;;;2.10;;
25155;SDS011;21913;52.456;13.634;2023-04-19T08:10:04;3.20;;;1.85;;
25155;SDS011;21913;52.456;13.634;2023-04-19T08:15:07;3.00;;;1.90;;
25155;SDS011;21913;52.456;13.634;2023-04-19T08:20:11;2.88;;;1.92;;
25155;SDS011;21913;52.456;13.634;2023-04-19T08:25:12;7.43;;;2.17;;
25155;SDS011;21913;52.456;13.634;2023-04-19T08:30:14;4.07;;;2.20;;
25155;SDS011;21913;52.456;13.634;2023-04-19T08:35:16;10.35;;;2.28;;
25155;SDS011;21913;52.456;13.634;2023-04-19T08:40:17;12.88;;;2.63;;
25155;SDS011;21913;52.456;13.634;2023-04-19T08:45:19;16.45;;;2.85;;
25155;SDS011;21913;52.456;13.634;2023-04-19T08:50:24;6.97;;;2.30;;
25155;SDS011;21913;52.456;13.634;2023-04-19T08:55:32;7.97;;;2.00;;
25155;SDS011;21913;52.456;13.634;2023-04-19T09:00:36;8.48;;;2.08;;
25155;SDS011;21913;52.456;13.634;2023-04-19T09:05:39;6.75;;;2.15;;
25155;SDS011;21913;52.456;13.634;2023-04-19T09:10:46;6.88;;;2.42;;
25155;SDS011;21913;52.456;13.634;2023-04-19T09:15:53;9.25;;;2.25;;
25155;SDS011;21913;52.456;13.634;2023-04-19T09:20:55;7.63;;;2.08;;
25155;SDS011;21913;52.456;13.634;2023-04-19T09:26:00;4.53;;;2.03;;
25155;SDS011;21913;52.456;13.634;2023-04-19T09:31:11;5.35;;;2.03;;
25155;SDS011;21913;52.456;13.634;2023-04-19T09:41:29;7.88;;;1.98;;
25155;SDS011;21913;52.456;13.634;2023-04-19T09:46:35;5.28;;;2.10;;
25155;SDS011;21913;52.456;13.634;2023-04-19T09:51:44;5.47;;;1.95;;
25155;SDS011;21913;52.456;13.634;2023-04-19T09:56:48;3.22;;;1.98;;
25155;SDS011;21913;52.456;13.634;2023-04-19T10:01:51;4.00;;;1.98;;
25155;SDS011;21913;52.456;13.634;2023-04-19T10:06:54;5.88;;;1.73;;
25155;SDS011;21913;52.456;13.634;2023-04-19T10:12:07;5.32;;;1.90;;
25155;SDS011;21913;52.456;13.634;2023-04-19T10:17:16;3.20;;;1.67;;
25155;SDS011;21913;52.456;13.634;2023-04-19T10:22:18;4.10;;;1.88;;
25155;SDS011;21913;52.456;13.634;2023-04-19T10:27:23;3.65;;;1.88;;
25155;SDS011;21913;52.456;13.634;2023-04-19T10:32:26;3.22;;;1.85;;
25155;SDS011;21913;52.456;13.634;2023-04-19T10:37:39;2.63;;;1.63;;
25155;SDS011;21913;52.456;13.634;2023-04-19T10:53:45;2.40;;;1.50;;
25155;SDS011;21913;52.456;13.634;2023-04-19T11:04:01;2.55;;;1.70;;
25155;SDS011;21913;52.456;13.634;2023-04-19T11:09:03;3.42;;;1.90;;
25155;SDS011;21913;52.456;13.634;2023-04-19T11:14:04;3.17;;;1.70;;
25155;SDS011;21913;52.456;13.634;2023-04-19T11:19:08;4.22;;;1.73;;
25155;SDS011;21913;52.456;13.634;2023-04-19T11:24:10;2.13;;;1.60;;
25155;SDS011;21913;52.456;13.634;2023-04-19T11:29:13;3.17;;;1.70;;
25155;SDS011;21913;52.456;13.634;2023-04-19T11:34:14;4.00;;;1.48;;
25155;SDS011;21913;52.456;13.634;2023-04-19T11:39:16;2.72;;;1.70;;
25155;SDS011;21913;52.456;13.634;2023-04-19T11:44:18;3.17;;;1.70;;
25155;SDS011;21913;52.456;13.634;2023-04-19T11:49:26;4.20;;;1.70;;
25155;SDS011;21913;52.456;13.634;2023-04-19T11:54:32;3.25;;;1.52;;
25155;SDS011;21913;52.456;13.634;2023-04-19T11:59:34;3.13;;;1.60;;
25155;SDS011;21913;52.456;13.634;2023-04-19T12:04:37;2.35;;;1.38;;
25155;SDS011;21913;52.456;13.634;2023-04-19T12:09:39;5.35;;;1.70;;
25155;SDS011;21913;52.456;13.634;2023-04-19T12:14:42;4.03;;;1.73;;
25155;SDS011;21913;52.456;13.634;2023-04-19T12:19:52;3.15;;;1.42;;
25155;SDS011;21913;52.456;13.634;2023-04-19T12:24:53;2.45;;;1.50;;
25155;SDS011;21913;52.456;13.634;2023-04-19T12:29:55;3.97;;;1.42;;
25155;SDS011;21913;52.456;13.634;2023-04-19T12:34:57;2.40;;;1.42;;
25155;SDS011;21913;52.456;13.634;2023-04-19T12:39:58;3.15;;;1.50;;
25155;SDS011;21913;52.456;13.634;2023-04-19T12:44:59;2.58;;;1.60;;
25155;SDS011;21913;52.456;13.634;2023-04-19T12:50:01;3.47;;;1.55;;
25155;SDS011;21913;52.456;13.634;2023-04-19T12:55:03;3.63;;;1.50;;
25155;SDS011;21913;52.456;13.634;2023-04-19T13:00:05;3.28;;;1.67;;
25155;SDS011;21913;52.456;13.634;2023-04-19T13:05:07;2.78;;;1.38;;
25155;SDS011;21913;52.456;13.634;2023-04-19T13:10:09;2.30;;;1.40;;
25155;SDS011;21913;52.456;13.634;2023-04-19T13:15:10;2.60;;;1.35;;
25155;SDS011;21913;52.456;13.634;2023-04-19T13:20:12;2.53;;;1.50;;
25155;SDS011;21913;52.456;13.634;2023-04-19T13:25:13;4.60;;;1.52;;
25155;SDS011;21913;52.456;13.634;2023-04-19T13:30:15;2.25;;;1.50;;
25155;SDS011;21913;52.456;13.634;2023-04-19T13:35:17;2.50;;;1.60;;
25155;SDS011;21913;52.456;13.634;2023-04-19T13:40:18;2.35;;;1.35;;
25155;SDS011;21913;52.456;13.634;2023-04-19T13:45:20;2.70;;;1.60;;
25155;SDS011;21913;52.456;13.634;2023-04-19T13:50:21;2.35;;;1.38;;
25155;SDS011;21913;52.456;13.634;2023-04-19T13:55:23;2.05;;;1.30;;
25155;SDS011;21913;52.456;13.634;2023-04-19T14:00:24;3.22;;;1.50;;
25155;SDS011;21913;52.456;13.634;2023-04-19T14:05:26;1.48;;;1.27;;
25155;SDS011;21913;52.456;13.634;2023-04-19T14:10:27;3.42;;;1.38;;
25155;SDS011;21913;52.456;13.634;2023-04-19T14:15:29;3.10;;;1.55;;
25155;SDS011;21913;52.456;13.634;2023-04-19T14:20:30;3.10;;;1.40;;
25155;SDS011;21913;52.456;13.634;2023-04-19T14:25:32;2.85;;;1.30;;
25155;SDS011;21913;52.456;13.634;2023-04-19T14:30:34;1.85;;;1.23;;
25155;SDS011;21913;52.456;13.634;2023-04-19T14:35:35;2.38;;;1.40;;
25155;SDS011;21913;52.456;13.634;2023-04-19T14:40:37;2.28;;;1.30;;
25155;SDS011;21913;52.456;13.634;2023-04-19T14:45:38;2.65;;;1.48;;
25155;SDS011;21913;52.456;13.634;2023-04-19T14:50:39;2.65;;;1.40;;
25155;SDS011;21913;52.456;13.634;2023-04-19T14:55:41;2.10;;;1.40;;
25155;SDS011;21913;52.456;13.634;2023-04-19T15:00:43;2.30;;;1.27;;
25155;SDS011;21913;52.456;13.634;2023-04-19T15:05:44;3.85;;;1.38;;
25155;SDS011;21913;52.456;13.634;2023-04-19T15:10:45;4.07;;;1.55;;
25155;SDS011;21913;52.456;13.634;2023-04-19T15:15:47;2.20;;;1.38;;
25155;SDS011;21913;52.456;13.634;2023-04-19T15:20:49;1.38;;;1.02;;
25155;SDS011;21913;52.456;13.634;2023-04-19T15:25:50;2.15;;;1.42;;
25155;SDS011;21913;52.456;13.634;2023-04-19T15:30:59;1.90;;;1.17;;
25155;SDS011;21913;52.456;13.634;2023-04-19T15:36:02;2.47;;;1.30;;
25155;SDS011;21913;52.456;13.634;2023-04-19T15:41:03;2.20;;;1.35;;
25155;SDS011;21913;52.456;13.634;2023-04-19T15:46:05;2.55;;;1.30;;
25155;SDS011;21913;52.456;13.634;2023-04-19T15:51:07;2.67;;;1.23;;
25155;SDS011;21913;52.456;13.634;2023-04-19T15:56:08;2.67;;;1.20;;
25155;SDS011;21913;52.456;13.634;2023-04-19T16:01:10;1.80;;;1.05;;
25155;SDS011;21913;52.456;13.634;2023-04-19T16:06:12;1.90;;;1.20;;
25155;SDS011;21913;52.456;13.634;2023-04-19T16:11:13;1.92;;;1.40;;
25155;SDS011;21913;52.456;13.634;2023-04-19T16:16:15;1.70;;;1.20;;
25155;SDS011;21913;52.456;13.634;2023-04-19T16:21:16;2.42;;;1.30;;
25155;SDS011;21913;52.456;13.634;2023-04-19T16:26:18;1.55;;;1.17;;
25155;SDS011;21913;52.456;13.634;2023-04-19T16:31:19;2.25;;;1.25;;
25155;SDS011;21913;52.456;13.634;2023-04-19T16:36:21;2.65;;;1.38;;
25155;SDS011;21913;52.456;13.634;2023-04-19T16:41:22;2.15;;;1.40;;
25155;SDS011;21913;52.456;13.634;2023-04-19T16:46:24;2.00;;;1.23;;
25155;SDS011;21913;52.456;13.634;2023-04-19T16:51:25;2.28;;;1.35;;
25155;SDS011;21913;52.456;13.634;2023-04-19T16:56:27;2.42;;;1.13;;
25155;SDS011;21913;52.456;13.634;2023-04-19T17:01:28;2.55;;;1.38;;
25155;SDS011;21913;52.456;13.634;2023-04-19T17:06:30;3.15;;;1.30;;
25155;SDS011;21913;52.456;13.634;2023-04-19T17:11:32;1.65;;;1.30;;
25155;SDS011;21913;52.456;13.634;2023-04-19T17:16:34;2.08;;;1.20;;
25155;SDS011;21913;52.456;13.634;2023-04-19T17:21:35;1.95;;;1.20;;
25155;SDS011;21913;52.456;13.634;2023-04-19T17:26:36;1.98;;;1.20;;
25155;SDS011;21913;52.456;13.634;2023-04-19T17:31:38;2.20;;;1.40;;
25155;SDS011;21913;52.456;13.634;2023-04-19T17:36:39;2.97;;;1.40;;
25155;SDS011;21913;52.456;13.634;2023-04-19T17:41:41;4.28;;;1.55;;
25155;SDS011;21913;52.456;13.634;2023-04-19T17:46:42;2.60;;;1.50;;
25155;SDS011;21913;52.456;13.634;2023-04-19T17:51:44;2.22;;;1.40;;
25155;SDS011;21913;52.456;13.634;2023-04-19T17:56:46;2.65;;;1.58;;
25155;SDS011;21913;52.456;13.634;2023-04-19T18:01:47;2.13;;;1.40;;
25155;SDS011;21913;52.456;13.634;2023-04-19T18:06:49;1.63;;;1.30;;
25155;SDS011;21913;52.456;13.634;2023-04-19T18:11:50;2.05;;;1.30;;
25155;SDS011;21913;52.456;13.634;2023-04-19T18:16:52;2.22;;;1.42;;
25155;SDS011;21913;52.456;13.634;2023-04-19T18:21:53;1.83;;;1.30;;
25155;SDS011;21913;52.456;13.634;2023-04-19T18:26:54;2.45;;;1.33;;
25155;SDS011;21913;52.456;13.634;2023-04-19T18:31:56;1.98;;;1.30;;
25155;SDS011;21913;52.456;13.634;2023-04-19T18:36:58;2.35;;;1.38;;
25155;SDS011;21913;52.456;13.634;2023-04-19T18:42:00;3.30;;;1.52;;
25155;SDS011;21913;52.456;13.634;2023-04-19T18:47:02;3.30;;;1.55;;
25155;SDS011;21913;52.456;13.634;2023-04-19T18:52:05;2.60;;;1.50;;
25155;SDS011;21913;52.456;13.634;2023-04-19T18:57:06;1.92;;;1.40;;
25155;SDS011;21913;52.456;13.634;2023-04-19T19:02:22;1.85;;;1.40;;
25155;SDS011;21913;52.456;13.634;2023-04-19T19:07:24;2.15;;;1.20;;
25155;SDS011;21913;52.456;13.634;2023-04-19T19:12:28;2.15;;;1.23;;
25155;SDS011;21913;52.456;13.634;2023-04-19T19:17:30;2.70;;;1.40;;
25155;SDS011;21913;52.456;13.634;2023-04-19T19:22:32;3.67;;;1.52;;
25155;SDS011;21913;52.456;13.634;2023-04-19T19:27:34;2.70;;;1.50;;
25155;SDS011;21913;52.456;13.634;2023-04-19T19:32:35;1.95;;;1.40;;
25155;SDS011;21913;52.456;13.634;2023-04-19T19:37:37;2.50;;;1.45;;
25155;SDS011;21913;52.456;13.634;2023-04-19T19:42:40;2.38;;;1.40;;
25155;SDS011;21913;52.456;13.634;2023-04-19T19:47:41;2.28;;;1.30;;
25155;SDS011;21913;52.456;13.634;2023-04-19T19:52:45;2.65;;;1.50;;
25155;SDS011;21913;52.456;13.634;2023-04-19T19:57:48;3.55;;;1.40;;
25155;SDS011;21913;52.456;13.634;2023-04-19T20:03:09;2.08;;;1.50;;
25155;SDS011;21913;52.456;13.634;2023-04-19T20:08:11;1.85;;;1.20;;
25155;SDS011;21913;52.456;13.634;2023-04-19T20:13:13;2.28;;;1.48;;
25155;SDS011;21913;52.456;13.634;2023-04-19T20:18:15;2.72;;;1.80;;
25155;SDS011;21913;52.456;13.634;2023-04-19T20:23:18;2.03;;;1.33;;
25155;SDS011;21913;52.456;13.634;2023-04-19T20:28:20;2.05;;;1.30;;
25155;SDS011;21913;52.456;13.634;2023-04-19T20:33:22;1.88;;;1.27;;
25155;SDS011;21913;52.456;13.634;2023-04-19T20:38:23;2.00;;;1.38;;
25155;SDS011;21913;52.456;13.634;2023-04-19T20:43:25;1.80;;;1.30;;
25155;SDS011;21913;52.456;13.634;2023-04-19T20:48:26;2.47;;;1.60;;
25155;SDS011;21913;52.456;13.634;2023-04-19T20:53:28;2.85;;;1.48;;
25155;SDS011;21913;52.456;13.634;2023-04-19T20:58:29;1.70;;;1.27;;
25155;SDS011;21913;52.456;13.634;2023-04-19T21:03:31;2.53;;;1.50;;
25155;SDS011;21913;52.456;13.634;2023-04-19T21:08:33;2.15;;;1.30;;
25155;SDS011;21913;52.456;13.634;2023-04-19T21:13:34;2.42;;;1.35;;
25155;SDS011;21913;52.456;13.634;2023-04-19T21:18:35;3.03;;;1.40;;
25155;SDS011;21913;52.456;13.634;2023-04-19T21:23:37;2.15;;;1.40;;
25155;SDS011;21913;52.456;13.634;2023-04-19T21:28:39;2.22;;;1.35;;
25155;SDS011;21913;52.456;13.634;2023-04-19T21:33:40;2.60;;;1.40;;
25155;SDS011;21913;52.456;13.634;2023-04-19T21:38:42;2.85;;;1.60;;
25155;SDS011;21913;52.456;13.634;2023-04-19T21:43:43;2.35;;;1.35;;
25155;SDS011;21913;52.456;13.634;2023-04-19T21:48:45;2.60;;;1.50;;
25155;SDS011;21913;52.456;13.634;2023-04-19T21:53:46;4.05;;;1.45;;
25155;SDS011;21913;52.456;13.634;2023-04-19T21:58:48;2.03;;;1.40;;
25155;SDS011;21913;52.456;13.634;2023-04-19T22:03:49;2.05;;;1.50;;
25155;SDS011;21913;52.456;13.634;2023-04-19T22:08:51;1.85;;;1.30;;
25155;SDS011;21913;52.456;13.634;2023-04-19T22:13:52;2.90;;;1.50;;
25155;SDS011;21913;52.456;13.634;2023-04-19T22:18:54;2.90;;;1.38;;
25155;SDS011;21913;52.456;13.634;2023-04-19T22:23:57;2.30;;;1.30;;
25155;SDS011;21913;52.456;13.634;2023-04-19T22:28:59;3.10;;;1.63;;
25155;SDS011;21913;52.456;13.634;2023-04-19T22:34:00;3.15;;;1.63;;
25155;SDS011;21913;52.456;13.634;2023-04-19T22:39:02;2.35;;;1.50;;
25155;SDS011;21913;52.456;13.634;2023-04-19T22:44:03;2.30;;;1.50;;
25155;SDS011;21913;52.456;13.634;2023-04-19T22:49:05;2.33;;;1.42;;
25155;SDS011;21913;52.456;13.634;2023-04-19T22:54:06;2.55;;;1.35;;
25155;SDS011;21913;52.456;13.634;2023-04-19T22:59:08;2.13;;;1.30;;
25155;SDS011;21913;52.456;13.634;2023-04-19T23:04:12;2.30;;;1.40;;
25155;SDS011;21913;52.456;13.634;2023-04-19T23:09:14;2.13;;;1.33;;
25155;SDS011;21913;52.456;13.634;2023-04-19T23:14:15;2.53;;;1.55;;
25155;SDS011;21913;52.456;13.634;2023-04-19T23:19:17;2.55;;;1.52;;
25155;SDS011;21913;52.456;13.634;2023-04-19T23:24:18;3.00;;;1.45;;
25155;SDS011;21913;52.456;13.634;2023-04-19T23:29:20;2.75;;;1.55;;
25155;SDS011;21913;52.456;13.634;2023-04-19T23:34:21;5.47;;;1.80;;
25155;SDS011;21913;52.456;13.634;2023-04-19T23:39:23;2.92;;;1.65;;
25155;SDS011;21913;52.456;13.634;2023-04-19T23:44:25;5.53;;;1.77;;
25155;SDS011;21913;52.456;13.634;2023-04-19T23:49:26;2.38;;;1.45;;
25155;SDS011;21913;52.456;13.634;2023-04-19T23:54:28;2.70;;;1.60;;
25155;SDS011;21913;52.456;13.634;2023-04-19T23:59:30;2.50;;;1.58;;
